Terminal Aerodrome Forecast
Issued by NWS

Current Version | Previous Version | Graphics & Text | Print | Product List | Glossary On
Versions: 1 2 3 4 5 6 7 8 9 10 11 12 13 14 15 16 17 18 19 20 21 22 23 24
000
FTUS41 KPBZ 272300
TAFHLG
TAF
KHLG 272328Z 2800/2824 31005KT 5SM -SHSN SCT015 OVC025
     FM280200 31006KT P6SM BKN025
     FM280400 32005KT P6SM SCT025
     FM281200 26003KT P6SM SKC=

USA.gov is the U.S. government's official web portal to all federal, state and local government web resources and services.